createdAt,value
2018-07-11T00:00:08.045Z,38.8
2018-07-11T00:02:08.231Z,39
2018-07-11T00:04:05.889Z,39
2018-07-11T00:06:05.621Z,39
2018-07-11T00:08:05.344Z,38.9
2018-07-11T00:10:05.041Z,38.9
2018-07-11T00:12:05.751Z,38.9
2018-07-11T00:14:05.531Z,38.7
2018-07-11T00:16:07.822Z,38.8
2018-07-11T00:18:05.826Z,38.8
2018-07-11T00:20:05.485Z,38.7
2018-07-11T00:22:05.283Z,38.6
2018-07-11T00:24:08.503Z,38.7
2018-07-11T00:26:05.242Z,38.6
2018-07-11T00:28:05.950Z,38.6
2018-07-11T00:30:05.700Z,38.8
2018-07-11T00:32:05.914Z,38.5
2018-07-11T00:34:05.597Z,38.6
2018-07-11T00:36:05.924Z,38.5
2018-07-11T00:38:08.327Z,38.5
2018-07-11T00:40:12.653Z,38.5
2018-07-11T00:42:05.330Z,38.5
2018-07-11T00:44:05.110Z,38.5
2018-07-11T00:46:05.834Z,38.5
2018-07-11T00:48:05.611Z,38.4
2018-07-11T00:50:05.294Z,38.5
2018-07-11T00:52:05.036Z,38.4
2018-07-11T00:54:05.259Z,38.1
2018-07-11T00:56:05.975Z,38.4
2018-07-11T00:58:05.669Z,38.2
2018-07-11T01:00:10.467Z,38.1
2018-07-11T01:02:05.200Z,38.1
2018-07-11T01:04:05.868Z,38.2
2018-07-11T01:06:05.588Z,38.1
2018-07-11T01:08:05.854Z,38.1
2018-07-11T01:10:05.655Z,38.1
2018-07-11T01:12:10.447Z,38.1
2018-07-11T01:14:05.697Z,38.1
2018-07-11T01:16:05.422Z,38.1
2018-07-11T01:18:05.292Z,38.1
2018-07-11T01:20:05.975Z,38.1
2018-07-11T01:22:05.796Z,38.1
2018-07-11T01:24:05.578Z,38.1
2018-07-11T01:26:05.260Z,38.1
2018-07-11T01:28:05.929Z,38.1
2018-07-11T01:30:05.159Z,38.1
2018-07-11T01:32:05.960Z,38.1
2018-07-11T01:34:05.227Z,38.1
2018-07-11T01:36:05.948Z,38.2
2018-07-11T01:38:08.219Z,38.2
2018-07-11T01:40:10.946Z,38.1
2018-07-11T01:42:05.631Z,38.2
2018-07-11T01:44:07.859Z,38.1
2018-07-11T01:46:05.570Z,38.1
2018-07-11T01:48:05.343Z,38
2018-07-11T01:50:05.037Z,38
2018-07-11T01:52:05.780Z,38
2018-07-11T01:54:05.474Z,38
2018-07-11T01:56:10.181Z,38
2018-07-11T01:58:05.836Z,37.9
2018-07-11T02:00:05.608Z,37.9
2018-07-11T02:02:05.358Z,38
2018-07-11T02:04:05.073Z,38
2018-07-11T02:06:08.353Z,38
2018-07-11T02:08:05.036Z,38
2018-07-11T02:10:08.244Z,38
2018-07-11T02:12:08.492Z,38
2018-07-11T02:14:05.155Z,37.9
2018-07-11T02:16:05.388Z,38
2018-07-11T02:18:07.810Z,38
2018-07-11T02:20:05.503Z,37.9
2018-07-11T02:22:10.238Z,37.9
2018-07-11T02:24:07.979Z,38.1
2018-07-11T02:26:10.715Z,37.9
2018-07-11T02:28:05.428Z,38.1
2018-07-11T02:30:05.687Z,38.2
2018-07-11T02:32:05.425Z,38.2
2018-07-11T02:34:05.108Z,38.1
2018-07-11T02:36:05.323Z,37.9
2018-07-11T02:38:11.076Z,37.9
2018-07-11T02:40:05.783Z,37.9
2018-07-11T02:42:15.695Z,37.9
2018-07-11T02:44:05.393Z,37.9
2018-07-11T02:46:17.769Z,38
2018-07-11T02:48:08.023Z,38.1
2018-07-11T02:50:08.192Z,38
2018-07-11T02:52:05.854Z,38
2018-07-11T02:54:05.248Z,38
2018-07-11T02:56:05.952Z,38
2018-07-11T02:58:05.654Z,38
2018-07-11T03:00:05.377Z,38
2018-07-11T03:02:05.063Z,38.2
2018-07-11T03:04:05.763Z,38.2
2018-07-11T03:06:15.609Z,38
2018-07-11T03:08:05.366Z,38
2018-07-11T03:10:07.592Z,38
2018-07-11T03:12:07.847Z,38
2018-07-11T03:14:05.589Z,38
2018-07-11T03:16:05.288Z,38
2018-07-11T03:18:10.245Z,38
2018-07-11T03:20:06.010Z,38.1
2018-07-11T03:22:05.838Z,38
2018-07-11T03:24:13.129Z,38.1
2018-07-11T03:26:05.834Z,38.1
2018-07-11T03:28:05.508Z,38.2
2018-07-11T03:30:05.197Z,38.3
2018-07-11T03:32:10.932Z,38.3
2018-07-11T03:34:05.241Z,38.3
2018-07-11T03:36:05.943Z,38.3
2018-07-11T03:38:05.616Z,38.3
2018-07-11T03:40:05.875Z,38.3
2018-07-11T03:42:05.561Z,38.3
2018-07-11T03:44:05.235Z,38.3
2018-07-11T03:46:08.444Z,38.2
2018-07-11T03:48:05.119Z,38.2
2018-07-11T03:50:05.321Z,38.2
2018-07-11T03:52:05.060Z,38.2
2018-07-11T03:54:08.287Z,38.2
2018-07-11T03:56:05.067Z,38.2
2018-07-11T03:58:05.289Z,38.2
2018-07-11T04:00:08.539Z,38.1
2018-07-11T04:02:10.854Z,38
2018-07-11T04:04:05.555Z,38.1
2018-07-11T04:06:05.298Z,38.1
2018-07-11T04:08:08.514Z,38
2018-07-11T04:10:05.199Z,38
2018-07-11T04:12:07.636Z,38.1
2018-07-11T04:14:05.361Z,38.1
2018-07-11T04:16:05.133Z,38.1
2018-07-11T04:18:05.995Z,38.1
2018-07-11T04:20:05.676Z,38.3
2018-07-11T04:22:12.969Z,38.2
2018-07-11T04:24:05.200Z,38
2018-07-11T04:26:05.928Z,38.2
2018-07-11T04:28:10.667Z,38.2
2018-07-11T04:30:05.345Z,38.2
2018-07-11T04:32:05.033Z,38.2
2018-07-11T04:34:08.255Z,38.1
2018-07-11T04:36:08.469Z,38.1
2018-07-11T04:38:05.216Z,38.1
2018-07-11T04:40:05.921Z,38.1
2018-07-11T04:42:05.647Z,38.1
2018-07-11T04:44:05.364Z,38.1
2018-07-11T04:46:11.073Z,38.1
2018-07-11T04:48:09.418Z,38.8
2018-07-11T04:50:07.579Z,38.1
2018-07-11T04:52:05.880Z,38.1
2018-07-11T04:54:08.095Z,38.2
2018-07-11T04:56:05.818Z,38.2
2018-07-11T04:58:05.536Z,38.1
2018-07-11T05:00:05.262Z,38.1
2018-07-11T05:02:06.003Z,38.1
2018-07-11T05:04:10.732Z,38.2
2018-07-11T05:06:05.437Z,38.2
2018-07-11T05:08:07.637Z,38
2018-07-11T05:10:10.361Z,38
2018-07-11T05:12:07.647Z,38.1
2018-07-11T05:14:05.312Z,38.1
2018-07-11T05:16:06.158Z,38
2018-07-11T05:18:05.301Z,38.1
2018-07-11T05:20:10.159Z,38
2018-07-11T05:22:05.479Z,38.1
2018-07-11T05:24:07.762Z,38
2018-07-11T05:26:05.666Z,38
2018-07-11T05:28:07.974Z,37.9
2018-07-11T05:30:05.734Z,38
2018-07-11T05:32:05.466Z,37.9
2018-07-11T05:34:05.159Z,37.9
2018-07-11T05:36:07.941Z,37.7
2018-07-11T05:38:05.613Z,37.7
2018-07-11T05:40:05.318Z,38
2018-07-11T05:42:05.571Z,37.9
2018-07-11T05:44:07.844Z,37.8
2018-07-11T05:46:05.597Z,38
2018-07-11T05:48:05.405Z,37.8
2018-07-11T05:50:05.219Z,37.8
2018-07-11T05:52:06.046Z,37.9
2018-07-11T05:54:05.894Z,37.9
2018-07-11T05:56:05.126Z,37.9
2018-07-11T05:58:08.427Z,38.1
2018-07-11T06:00:15.275Z,37.8
2018-07-11T06:02:05.030Z,37.8
2018-07-11T06:04:05.801Z,38.1
2018-07-11T06:06:05.472Z,38.1
2018-07-11T06:08:05.156Z,38
2018-07-11T06:10:05.875Z,38.1
2018-07-11T06:12:05.568Z,38
2018-07-11T06:14:05.477Z,38.1
2018-07-11T06:16:10.378Z,37.9
2018-07-11T06:18:07.718Z,38
2018-07-11T06:20:07.868Z,38
2018-07-11T06:22:05.552Z,38
2018-07-11T06:24:08.278Z,38.2
2018-07-11T06:26:05.959Z,38.1
2018-07-11T06:28:05.727Z,38.2
2018-07-11T06:30:05.039Z,38.2
2018-07-11T06:32:05.786Z,38.3
2018-07-11T06:34:06.004Z,38.3
2018-07-11T06:36:08.228Z,38.4
2018-07-11T06:38:05.640Z,38.4
2018-07-11T06:40:05.859Z,38.4
2018-07-11T06:42:05.512Z,38.3
2018-07-11T06:44:05.252Z,38.4
2018-07-11T06:46:05.969Z,38.5
2018-07-11T06:48:05.636Z,38.6
2018-07-11T06:50:07.869Z,38.6
2018-07-11T06:52:05.819Z,38.6
2018-07-11T06:54:05.823Z,38.6
2018-07-11T06:56:05.603Z,38.6
2018-07-11T06:58:05.549Z,38.6
2018-07-11T07:00:05.239Z,38.6
2018-07-11T07:02:05.913Z,38.7
2018-07-11T07:04:05.570Z,38.6
2018-07-11T07:06:10.408Z,38.8
2018-07-11T07:08:07.659Z,38.6
2018-07-11T07:10:05.409Z,38.6
2018-07-11T07:12:05.152Z,38.6
2018-07-11T07:14:08.335Z,38.8
2018-07-11T07:16:05.010Z,38.7
2018-07-11T07:18:06.042Z,38.9
2018-07-11T07:20:05.993Z,38.9
2018-07-11T07:22:08.259Z,38.8
2018-07-11T07:24:08.473Z,38.8
2018-07-11T07:26:05.254Z,38.7
2018-07-11T07:28:05.930Z,38.8
2018-07-11T07:30:05.603Z,38.6
2018-07-11T07:32:05.395Z,38.9
2018-07-11T07:34:05.107Z,38.8
2018-07-11T07:36:10.412Z,38.8
2018-07-11T07:38:05.390Z,38.7
2018-07-11T07:40:05.591Z,38.8
2018-07-11T07:42:05.661Z,38.8
2018-07-11T07:44:05.544Z,39.1
2018-07-11T07:46:06.044Z,38.8
2018-07-11T07:48:13.399Z,38.8
2018-07-11T07:50:06.759Z,38.8
2018-07-11T07:52:07.972Z,39.2
2018-07-11T07:54:05.637Z,39.2
2018-07-11T07:56:07.488Z,39.1
2018-07-11T07:58:05.650Z,39.2
2018-07-11T08:00:05.425Z,39
2018-07-11T08:02:05.171Z,39
2018-07-11T08:04:05.870Z,39.4
2018-07-11T08:06:05.592Z,39.3
2018-07-11T08:08:10.426Z,39.2
2018-07-11T08:10:05.408Z,39.4
2018-07-11T08:12:07.797Z,39.6
2018-07-11T08:14:05.486Z,39.6
2018-07-11T08:16:05.197Z,39.7
2018-07-11T08:18:07.640Z,39.6
2018-07-11T08:20:06.248Z,39.7
2018-07-11T08:22:05.692Z,40
2018-07-11T08:24:05.385Z,39.6
2018-07-11T08:26:10.226Z,39.8
2018-07-11T08:28:05.969Z,39.8
2018-07-11T08:30:05.724Z,39.8
2018-07-11T08:32:05.433Z,39.8
2018-07-11T08:34:08.036Z,39.9
2018-07-11T08:36:05.963Z,39.9
2018-07-11T08:38:05.644Z,40.2
2018-07-11T08:40:05.395Z,40
2018-07-11T08:42:05.245Z,39.8
2018-07-11T08:44:05.041Z,39.6
2018-07-11T08:46:05.936Z,39.5
2018-07-11T08:48:06.097Z,39.8
2018-07-11T08:50:05.158Z,39.6
2018-07-11T08:52:05.843Z,39.9
2018-07-11T08:54:08.157Z,40.2
2018-07-11T08:56:08.380Z,40.2
2018-07-11T08:58:05.108Z,40.3
2018-07-11T09:00:05.768Z,40
2018-07-11T09:02:05.652Z,40.2
2018-07-11T09:04:07.868Z,41
2018-07-11T09:06:08.115Z,41
2018-07-11T09:08:05.887Z,41
2018-07-11T09:10:05.600Z,41.2
2018-07-11T09:12:05.837Z,41.3
2018-07-11T09:14:05.513Z,41.5
2018-07-11T09:16:05.447Z,41.3
2018-07-11T09:18:05.347Z,41
2018-07-11T09:20:05.126Z,40.7
2018-07-11T09:22:05.857Z,40.3
2018-07-11T09:24:05.617Z,39.8
2018-07-11T09:26:05.569Z,40.2
2018-07-11T09:28:05.528Z,39.6
2018-07-11T09:30:07.814Z,39.8
2018-07-11T09:32:05.540Z,39.6
2018-07-11T09:34:07.762Z,39.8
2018-07-11T09:36:05.427Z,39.6
2018-07-11T09:38:07.727Z,39.5
2018-07-11T09:40:05.449Z,39.6
2018-07-11T09:42:07.705Z,39
2018-07-11T09:44:07.950Z,39.2
2018-07-11T09:46:05.642Z,39.3
2018-07-11T09:48:05.344Z,39.2
2018-07-11T09:50:05.051Z,39.2
2018-07-11T09:52:05.818Z,39.1
2018-07-11T09:54:05.644Z,38.9
2018-07-11T09:56:05.862Z,38.5
2018-07-11T09:58:05.617Z,38.5
2018-07-11T10:00:07.924Z,38.5
2018-07-11T10:02:05.582Z,38.5
2018-07-11T10:04:07.783Z,38.1
2018-07-11T10:06:05.445Z,37.9
2018-07-11T10:08:05.111Z,38
2018-07-11T10:10:05.340Z,38
2018-07-11T10:12:05.660Z,37.9
2018-07-11T10:14:07.906Z,37.8
2018-07-11T10:16:05.106Z,37.8
2018-07-11T10:18:05.966Z,37.6
2018-07-11T10:20:05.765Z,37.7
2018-07-11T10:22:05.509Z,37.5
2018-07-11T10:24:05.198Z,37.5
2018-07-11T10:26:07.665Z,37.4
2018-07-11T10:28:05.341Z,37.4
2018-07-11T10:30:05.083Z,37.5
2018-07-11T10:32:05.793Z,37.3
2018-07-11T10:34:08.039Z,36.7
2018-07-11T10:36:05.780Z,36.7
2018-07-11T10:38:06.031Z,36.7
2018-07-11T10:40:05.756Z,37
2018-07-11T10:42:05.553Z,36.8
2018-07-11T10:44:05.217Z,36.8
2018-07-11T10:46:05.887Z,36.6
2018-07-11T10:48:05.783Z,37
2018-07-11T10:50:05.530Z,37
2018-07-11T10:52:05.915Z,36.9
2018-07-11T10:54:05.584Z,36.5
2018-07-11T10:56:05.302Z,36.6
2018-07-11T10:58:05.994Z,36.6
2018-07-11T11:00:05.682Z,36.6
2018-07-11T11:02:10.476Z,36.5
2018-07-11T11:04:05.244Z,36.5
2018-07-11T11:06:10.982Z,36.4
2018-07-11T11:08:06.009Z,36.4
2018-07-11T11:10:05.942Z,36
2018-07-11T11:12:05.743Z,35.8
2018-07-11T11:14:07.592Z,36
2018-07-11T11:16:07.851Z,36.6
2018-07-11T11:18:05.726Z,36.4
2018-07-11T11:20:10.547Z,37
2018-07-11T11:22:05.348Z,36.9
2018-07-11T11:24:05.008Z,36.7
2018-07-11T11:26:10.797Z,36.7
2018-07-11T11:28:05.635Z,36.7
2018-07-11T11:30:06.006Z,36.7
2018-07-11T11:32:05.720Z,36.7
2018-07-11T11:34:10.599Z,36.4
2018-07-11T11:36:05.341Z,36.6
2018-07-11T11:38:05.107Z,36.5
2018-07-11T11:40:05.454Z,36.4
2018-07-11T11:42:08.529Z,36.3
2018-07-11T11:44:05.787Z,36.3
2018-07-11T11:46:08.066Z,36.2
2018-07-11T11:48:05.848Z,36.3
2018-07-11T11:50:07.647Z,36.1
2018-07-11T11:52:05.360Z,36.1
2018-07-11T11:54:05.086Z,36.1
2018-07-11T11:56:05.805Z,36.1
2018-07-11T11:58:05.779Z,36.2
2018-07-11T12:00:05.964Z,36.1
2018-07-11T12:02:05.629Z,36.2
2018-07-11T12:04:05.326Z,36.1
2018-07-11T12:06:08.096Z,35.3
2018-07-11T12:08:08.342Z,36.1
2018-07-11T12:10:05.669Z,36.2
2018-07-11T12:12:08.404Z,36.4
2018-07-11T12:14:05.061Z,36.3
2018-07-11T12:16:12.947Z,36.2
2018-07-11T12:18:05.964Z,36.2
2018-07-11T12:20:05.636Z,36
2018-07-11T12:22:05.448Z,36
2018-07-11T12:24:05.186Z,35.8
2018-07-11T12:26:10.948Z,35.9
2018-07-11T12:28:05.647Z,35.8
2018-07-11T12:30:05.297Z,35.9
2018-07-11T12:32:05.974Z,36
2018-07-11T12:34:05.294Z,35.8
2018-07-11T12:36:08.557Z,35.8
2018-07-11T12:38:05.764Z,35.8
2018-07-11T12:40:08.699Z,35.8
2018-07-11T12:42:05.420Z,35.6
2018-07-11T12:44:07.620Z,35.9
2018-07-11T12:46:05.348Z,35.9
2018-07-11T12:48:05.089Z,35.7
2018-07-11T12:50:05.351Z,35.6
2018-07-11T12:52:05.137Z,35.6
2018-07-11T12:54:05.840Z,35.7
2018-07-11T12:56:10.587Z,35.8
2018-07-11T12:58:05.347Z,35.9
2018-07-11T13:00:05.112Z,35.8
2018-07-11T13:02:13.408Z,35.9
2018-07-11T13:04:05.101Z,36
2018-07-11T13:06:05.786Z,35.9
2018-07-11T13:08:05.458Z,36
2018-07-11T13:10:05.281Z,36
2018-07-11T13:12:05.533Z,36.3
2018-07-11T13:14:06.833Z,36.2
2018-07-11T13:16:05.739Z,36.1
2018-07-11T13:18:08.462Z,36.3
2018-07-11T13:20:05.220Z,36.3
2018-07-11T13:22:07.962Z,36.2
2018-07-11T13:24:06.044Z,36.2
2018-07-11T13:26:05.732Z,36.3
2018-07-11T13:28:16.053Z,36.2
2018-07-11T13:30:05.783Z,36
2018-07-11T13:32:10.717Z,36.1
2018-07-11T13:34:10.559Z,36.1
2018-07-11T13:36:06.214Z,36.1
2018-07-11T13:38:05.202Z,36.1
2018-07-11T13:40:07.560Z,36.1
2018-07-11T13:42:05.389Z,36.1
2018-07-11T13:44:06.456Z,36.1
2018-07-11T13:46:08.157Z,36.1
2018-07-11T13:48:11.352Z,36.1
2018-07-11T13:50:07.416Z,36.1
2018-07-11T13:52:06.077Z,36.1
2018-07-11T13:54:06.188Z,35.9
2018-07-11T13:56:05.600Z,35.2
2018-07-11T13:58:05.376Z,35.4
2018-07-11T14:00:05.950Z,35.9
2018-07-11T14:02:08.192Z,36
2018-07-11T14:04:05.906Z,36
2018-07-11T14:06:10.939Z,35.2
2018-07-11T14:08:05.189Z,35.3
2018-07-11T14:10:05.232Z,35.8
2018-07-11T14:12:05.996Z,36
2018-07-11T14:14:08.346Z,35.6
2018-07-11T14:16:05.200Z,35.7
2018-07-11T14:18:07.617Z,35.6
2018-07-11T14:20:10.705Z,35.7
2018-07-11T14:22:09.044Z,35.7
2018-07-11T14:24:05.345Z,35.7
2018-07-11T14:26:05.055Z,35.7
2018-07-11T14:28:08.269Z,35.9
2018-07-11T14:30:05.505Z,35.9
2018-07-11T14:32:05.208Z,36
2018-07-11T14:34:05.903Z,36
2018-07-11T14:36:05.605Z,36
2018-07-11T14:38:05.267Z,36.1
2018-07-11T14:40:06.006Z,36.1
2018-07-11T14:42:05.850Z,36.1
2018-07-11T14:44:13.143Z,36.3
2018-07-11T14:46:08.365Z,36.1
2018-07-11T14:48:05.051Z,36.3
2018-07-11T14:50:05.756Z,36.2
2018-07-11T14:52:08.090Z,36.3
2018-07-11T14:54:05.829Z,36.3
2018-07-11T14:56:06.042Z,36.4
2018-07-11T14:58:16.290Z,36.3
2018-07-11T15:00:05.382Z,36.3
2018-07-11T15:02:05.302Z,36.2
2018-07-11T15:04:05.192Z,36.3
2018-07-11T15:06:06.091Z,36.4
2018-07-11T15:08:06.044Z,36.3
2018-07-11T15:10:05.688Z,36.2
2018-07-11T15:12:05.038Z,36.2
2018-07-11T15:14:05.782Z,36.2
2018-07-11T15:16:05.481Z,36.4
2018-07-11T15:18:05.920Z,36.5
2018-07-11T15:20:05.607Z,36.5
2018-07-11T15:22:05.350Z,36.4
2018-07-11T15:24:05.050Z,36.5
2018-07-11T15:26:05.762Z,36.7
2018-07-11T15:28:05.477Z,36.8
2018-07-11T15:30:07.749Z,36.7
2018-07-11T15:32:05.491Z,36.7
2018-07-11T15:34:07.853Z,36.8
2018-07-11T15:36:05.551Z,36.8
2018-07-11T15:38:07.765Z,36.8
2018-07-11T15:40:05.502Z,36.7
2018-07-11T15:42:05.239Z,36.8
2018-07-11T15:44:08.492Z,36.7
2018-07-11T15:46:05.227Z,36.7
2018-07-11T15:48:05.476Z,36.8
2018-07-11T15:50:07.724Z,36.8
2018-07-11T15:52:05.421Z,36.8
2018-07-11T15:54:05.062Z,36.8
2018-07-11T15:56:10.831Z,36.8
2018-07-11T15:58:07.724Z,36.6
2018-07-11T16:00:05.371Z,36.6
2018-07-11T16:02:07.670Z,36.5
2018-07-11T16:04:05.387Z,36.5
2018-07-11T16:06:05.076Z,36.6
2018-07-11T16:08:05.245Z,36.7
2018-07-11T16:10:05.886Z,36.8
2018-07-11T16:12:05.575Z,36.8
2018-07-11T16:14:05.273Z,36.8
2018-07-11T16:16:07.833Z,36.8
2018-07-11T16:18:05.377Z,36.9
2018-07-11T16:20:05.110Z,37
2018-07-11T16:22:05.398Z,37
2018-07-11T16:24:05.615Z,37.1
2018-07-11T16:26:07.857Z,37.1
2018-07-11T16:28:05.562Z,37.1
2018-07-11T16:30:05.466Z,37.1
2018-07-11T16:32:05.158Z,37.1
2018-07-11T16:34:05.866Z,37.2
2018-07-11T16:36:13.128Z,37.4
2018-07-11T16:38:10.815Z,37.2
2018-07-11T16:40:10.650Z,37.6
2018-07-11T16:42:05.830Z,37.6
2018-07-11T16:44:05.045Z,37.4
2018-07-11T16:46:05.279Z,37.6
2018-07-11T16:48:05.649Z,38.1
2018-07-11T16:50:06.025Z,38
2018-07-11T16:52:08.291Z,37.9
2018-07-11T16:54:06.746Z,37.9
2018-07-11T16:56:05.462Z,37.9
2018-07-11T16:58:05.176Z,37.9
2018-07-11T17:00:06.180Z,38.1
2018-07-11T17:02:05.993Z,38.1
2018-07-11T17:04:10.724Z,38.1
2018-07-11T17:06:05.959Z,38.1
2018-07-11T17:08:07.917Z,38.1
2018-07-11T17:10:05.659Z,38.1
2018-07-11T17:12:05.909Z,38.1
2018-07-11T17:14:07.987Z,38.3
2018-07-11T17:16:15.243Z,38.3
2018-07-11T17:18:05.370Z,38.1
2018-07-11T17:20:06.802Z,38.3
2018-07-11T17:22:05.057Z,38.5
2018-07-11T17:24:10.377Z,38.8
2018-07-11T17:26:07.828Z,38.9
2018-07-11T17:28:05.609Z,38.9
2018-07-11T17:30:05.383Z,38.9
2018-07-11T17:32:05.099Z,39.1
2018-07-11T17:34:06.036Z,39.1
2018-07-11T17:36:05.149Z,39
2018-07-11T17:38:05.098Z,39.1
2018-07-11T17:40:06.015Z,39.2
2018-07-11T17:42:11.773Z,39.4
2018-07-11T17:44:05.527Z,39.4
2018-07-11T17:46:05.270Z,39.5
2018-07-11T17:48:05.610Z,39.5
2018-07-11T17:50:10.449Z,39.6
2018-07-11T17:52:07.695Z,39.6
2018-07-11T17:54:11.035Z,39.8
2018-07-11T17:56:05.367Z,39.8
2018-07-11T17:58:05.092Z,39.8
2018-07-11T18:00:06.011Z,39.9
2018-07-11T18:02:05.965Z,39.9
2018-07-11T18:04:05.700Z,39.8
2018-07-11T18:06:05.437Z,39.9
2018-07-11T18:08:10.244Z,39.9
2018-07-11T18:10:05.942Z,39.9
2018-07-11T18:12:05.709Z,39.9
2018-07-11T18:14:11.049Z,39.9
2018-07-11T18:16:11.024Z,40
2018-07-11T18:18:05.915Z,40
2018-07-11T18:20:05.648Z,40
2018-07-11T18:22:07.846Z,40
2018-07-11T18:24:05.571Z,40
2018-07-11T18:26:05.385Z,40
2018-07-11T18:28:05.102Z,40
2018-07-11T18:30:08.350Z,40.1
2018-07-11T18:32:07.631Z,40.2
2018-07-11T18:34:05.255Z,40.2
2018-07-11T18:36:06.086Z,40.4
2018-07-11T18:38:08.601Z,40.5
2018-07-11T18:40:05.763Z,40.4
2018-07-11T18:42:05.605Z,40.7
2018-07-11T18:44:05.311Z,40.8
2018-07-11T18:46:07.973Z,41.3
2018-07-11T18:48:06.259Z,41.1
2018-07-11T18:50:05.266Z,41.3
2018-07-11T18:52:07.842Z,41.5
2018-07-11T18:54:05.717Z,41.5
2018-07-11T18:56:10.546Z,41.5
2018-07-11T18:58:05.340Z,41.4
2018-07-11T19:00:07.788Z,41.4
2018-07-11T19:02:10.039Z,41.4
2018-07-11T19:04:08.536Z,41.4
2018-07-11T19:06:05.594Z,41.4
2018-07-11T19:08:05.854Z,41.4
2018-07-11T19:10:05.555Z,41.4
2018-07-11T19:12:05.465Z,41.5
2018-07-11T19:14:05.876Z,41.4
2018-07-11T19:16:05.661Z,41.5
2018-07-11T19:18:05.205Z,41.5
2018-07-11T19:20:08.404Z,41.3
2018-07-11T19:22:05.127Z,41.5
2018-07-11T19:24:05.853Z,41.5
2018-07-11T19:26:05.565Z,41.4
2018-07-11T19:28:05.270Z,41.5
2018-07-11T19:30:05.513Z,41.5
2018-07-11T19:32:05.347Z,41.5
2018-07-11T19:34:05.120Z,41.5
2018-07-11T19:36:08.488Z,41.4
2018-07-11T19:38:05.805Z,41.3
2018-07-11T19:40:05.588Z,41.5
2018-07-11T19:42:10.636Z,41.4
2018-07-11T19:44:05.924Z,41.3
2018-07-11T19:46:05.750Z,41.4
2018-07-11T19:48:05.555Z,41.2
2018-07-11T19:50:07.775Z,41.1
2018-07-11T19:52:05.703Z,41.1
2018-07-11T19:54:05.390Z,41.2
2018-07-11T19:56:05.625Z,41.1
2018-07-11T19:58:07.835Z,41.1
2018-07-11T20:00:13.104Z,41.2
2018-07-11T20:02:06.108Z,41.2
2018-07-11T20:04:12.913Z,41.1
2018-07-11T20:06:05.212Z,41.1
2018-07-11T20:08:08.517Z,41.1
2018-07-11T20:10:05.200Z,41.2
2018-07-11T20:12:08.616Z,41.1
2018-07-11T20:14:05.486Z,41.1
2018-07-11T20:16:05.764Z,41.2
2018-07-11T20:18:05.730Z,41.1
2018-07-11T20:20:07.696Z,41.1
2018-07-11T20:22:06.025Z,41.1
2018-07-11T20:24:08.271Z,41.1
2018-07-11T20:26:08.516Z,41.1
2018-07-11T20:28:05.295Z,41.1
2018-07-11T20:30:06.032Z,41
2018-07-11T20:32:05.475Z,41
2018-07-11T20:34:10.508Z,41
2018-07-11T20:36:17.772Z,41
2018-07-11T20:38:05.441Z,41
2018-07-11T20:40:10.617Z,41
2018-07-11T20:42:05.341Z,41
2018-07-11T20:44:05.653Z,41
2018-07-11T20:46:10.525Z,41.1
2018-07-11T20:48:08.030Z,41.1
2018-07-11T20:50:06.025Z,41.1
2018-07-11T20:52:07.242Z,41.1
2018-07-11T20:54:05.234Z,41.2
2018-07-11T20:56:05.951Z,41.1
2018-07-11T20:58:08.157Z,41.2
2018-07-11T21:00:05.844Z,41.2
2018-07-11T21:02:05.609Z,41
2018-07-11T21:04:05.284Z,41.2
2018-07-11T21:06:06.082Z,41.1
2018-07-11T21:08:07.897Z,41.1
2018-07-11T21:10:08.199Z,41.1
2018-07-11T21:12:05.394Z,41.1
2018-07-11T21:14:05.072Z,41.2
2018-07-11T21:16:05.744Z,41.1
2018-07-11T21:18:05.696Z,41.1
2018-07-11T21:20:05.413Z,41.1
2018-07-11T21:22:07.695Z,41
2018-07-11T21:24:07.981Z,41
2018-07-11T21:26:05.654Z,41
2018-07-11T21:28:07.911Z,41
2018-07-11T21:30:05.619Z,41
2018-07-11T21:32:05.270Z,41.1
2018-07-11T21:34:08.444Z,41.1
2018-07-11T21:36:05.152Z,41.1
2018-07-11T21:38:05.869Z,41.1
2018-07-11T21:40:05.853Z,41.1
2018-07-11T21:42:05.496Z,41.1
2018-07-11T21:44:05.165Z,41.2
2018-07-11T21:46:05.960Z,41.2
2018-07-11T21:48:05.685Z,41.1
2018-07-11T21:50:05.383Z,41.1
2018-07-11T21:52:05.123Z,41.1
2018-07-11T21:54:05.795Z,41.1
2018-07-11T21:56:05.482Z,41.1
2018-07-11T21:58:05.258Z,41.1
2018-07-11T22:00:06.028Z,41.1
2018-07-11T22:02:05.809Z,41.1
2018-07-11T22:04:05.140Z,41.3
2018-07-11T22:06:05.435Z,41.1
2018-07-11T22:08:05.207Z,41.2
2018-07-11T22:10:05.957Z,41.3
2018-07-11T22:12:05.621Z,41.3
2018-07-11T22:14:10.323Z,41.3
2018-07-11T22:16:07.878Z,41.2
2018-07-11T22:18:05.814Z,41.2
2018-07-11T22:20:05.513Z,41.4
2018-07-11T22:22:05.289Z,41.4
2018-07-11T22:24:08.010Z,41.3
2018-07-11T22:26:08.204Z,41.3
2018-07-11T22:28:05.949Z,41.3
2018-07-11T22:30:05.647Z,41.3
2018-07-11T22:32:05.317Z,41.3
2018-07-11T22:34:06.044Z,41.4
2018-07-11T22:36:08.432Z,41.4
2018-07-11T22:38:05.378Z,41.2
2018-07-11T22:40:07.659Z,41.3
2018-07-11T22:42:05.337Z,41.3
2018-07-11T22:44:07.508Z,41.5
2018-07-11T22:46:05.749Z,41.5
2018-07-11T22:48:05.493Z,41.6
2018-07-11T22:50:07.752Z,41.7
2018-07-11T22:52:05.471Z,41.5
2018-07-11T22:54:05.720Z,41.7
2018-07-11T22:56:05.975Z,41.7
2018-07-11T22:58:05.705Z,41.6
2018-07-11T23:00:05.370Z,41.6
2018-07-11T23:02:05.584Z,41.8
2018-07-11T23:04:05.284Z,41.7
2018-07-11T23:06:05.967Z,41.8
2018-07-11T23:08:08.255Z,42
2018-07-11T23:10:05.015Z,41.9
2018-07-11T23:12:10.746Z,41.9
2018-07-11T23:14:05.489Z,41.9
2018-07-11T23:16:10.295Z,41.8
2018-07-11T23:18:05.210Z,41.9
2018-07-11T23:20:05.969Z,41.8
2018-07-11T23:22:05.617Z,42
2018-07-11T23:24:07.809Z,41.9
2018-07-11T23:26:08.077Z,42
2018-07-11T23:28:05.797Z,42
2018-07-11T23:30:05.517Z,41.9
2018-07-11T23:32:07.767Z,41.9
2018-07-11T23:34:07.984Z,42
2018-07-11T23:36:05.758Z,42
2018-07-11T23:38:05.980Z,42.2
2018-07-11T23:43:08.278Z,42
2018-07-11T23:44:05.990Z,42.2
2018-07-11T23:46:08.307Z,42.1
2018-07-11T23:48:05.568Z,42.1
2018-07-11T23:50:07.860Z,42.1
2018-07-11T23:52:05.587Z,42.1
2018-07-11T23:54:05.304Z,42
2018-07-11T23:56:05.149Z,42
2018-07-11T23:58:05.885Z,42.1
